Time;durP1;ratioP1;P1;durP2;ratioP2;P2;SDS_P1;SDS_P2;PMS_P1;PMS_P2;Temp;Humidity;BMP_temperature;BMP_pressure;BME280_temperature;BME280_humidity;BME280_pressure;Samples;Min_cycle;Max_cycle;Signal;HPM_P1;HPM_P2
2022/01/07 00:01:35;;;;;;;17.23;6.63;;;;;;;;;;5057919;28;20046;-86
2022/01/07 00:04:01;;;;;;;12.77;5.32;;;;;;;;;;5057124;28;20036;-86
2022/01/07 00:06:30;;;;;;;9.85;4.90;;;;;;;;;;5057188;28;20490;-86
2022/01/07 00:08:57;;;;;;;13.70;5.75;;;;;;;;;;5057454;28;20040;-86
2022/01/07 00:11:23;;;;;;;13.20;5.53;;;;;;;;;;5057155;28;20340;-86
2022/01/07 00:13:49;;;;;;;17.20;7.10;;;;;;;;;;5057130;28;20058;-86
2022/01/07 00:16:16;;;;;;;16.17;5.57;;;;;;;;;;5057069;28;20064;-86
2022/01/07 00:18:44;;;;;;;14.77;6.20;;;;;;;;;;5074118;28;20052;-86
2022/01/07 00:21:10;;;;;;;15.77;6.00;;;;;;;;;;5057862;28;20044;-86
2022/01/07 00:23:36;;;;;;;13.13;5.50;;;;;;;;;;5057502;28;20416;-87
2022/01/07 00:26:02;;;;;;;17.75;6.45;;;;;;;;;;5059195;28;20461;-87
2022/01/07 00:28:29;;;;;;;12.10;5.47;;;;;;;;;;5060976;28;20051;-87
2022/01/07 00:30:55;;;;;;;14.45;6.50;;;;;;;;;;5060894;28;20036;-86
2022/01/07 00:33:21;;;;;;;13.05;6.07;;;;;;;;;;5061527;28;20043;-87
2022/01/07 00:35:47;;;;;;;12.35;4.95;;;;;;;;;;5056823;28;20393;-87
2022/01/07 00:38:13;;;;;;;12.50;6.35;;;;;;;;;;5041513;28;20044;-84
2022/01/07 00:40:40;;;;;;;15.27;5.93;;;;;;;;;;5041348;28;20040;-85
2022/01/07 00:43:06;;;;;;;12.80;5.88;;;;;;;;;;5041474;28;20459;-87
2022/01/07 00:45:33;;;;;;;13.00;5.93;;;;;;;;;;5040187;28;20044;-86
2022/01/07 00:47:59;;;;;;;15.07;7.47;;;;;;;;;;5057793;28;20048;-87
2022/01/07 00:50:27;;;;;;;14.63;6.93;;;;;;;;;;5040803;28;20075;-86
2022/01/07 00:52:53;;;;;;;11.13;6.18;;;;;;;;;;5057703;28;20388;-87
2022/01/07 00:55:22;;;;;;;11.15;6.38;;;;;;;;;;5040501;28;20047;-87
2022/01/07 00:57:48;;;;;;;13.73;6.68;;;;;;;;;;5057203;28;20385;-87
2022/01/07 01:00:15;;;;;;;12.98;7.28;;;;;;;;;;5057196;28;20105;-87
2022/01/07 01:02:42;;;;;;;13.00;6.20;;;;;;;;;;5040449;28;20040;-87
2022/01/07 01:05:09;;;;;;;14.65;6.82;;;;;;;;;;5040318;28;20075;-86
2022/01/07 01:07:35;;;;;;;15.20;7.30;;;;;;;;;;5057289;28;20040;-87
2022/01/07 01:10:05;;;;;;;14.18;8.10;;;;;;;;;;5057570;28;20446;-87
2022/01/07 01:12:32;;;;;;;17.02;8.43;;;;;;;;;;5040766;28;20568;-87
2022/01/07 01:14:58;;;;;;;17.30;8.65;;;;;;;;;;5057019;28;20119;-87
2022/01/07 01:17:24;;;;;;;16.10;8.85;;;;;;;;;;5041122;28;20403;-87
2022/01/07 01:19:55;;;;;;;15.57;8.88;;;;;;;;;;5040356;28;20045;-87
2022/01/07 01:22:21;;;;;;;14.40;9.43;;;;;;;;;;5040326;28;20097;-88
2022/01/07 01:24:47;;;;;;;16.98;9.77;;;;;;;;;;5056763;28;20056;-87
2022/01/07 01:27:13;;;;;;;15.32;9.90;;;;;;;;;;5040313;28;20452;-87
2022/01/07 01:29:39;;;;;;;16.23;10.23;;;;;;;;;;5039587;28;20049;-87
2022/01/07 01:32:10;;;;;;;15.55;10.60;;;;;;;;;;5057012;28;20041;-87
2022/01/07 01:34:36;;;;;;;20.55;10.77;;;;;;;;;;5056960;28;20041;-87
2022/01/07 01:37:03;;;;;;;16.50;10.93;;;;;;;;;;5056433;28;20048;-88
2022/01/07 01:39:29;;;;;;;17.05;11.07;;;;;;;;;;5057859;28;20500;-87
2022/01/07 01:41:57;;;;;;;17.83;10.50;;;;;;;;;;5040872;28;20044;-87
2022/01/07 01:44:26;;;;;;;16.67;11.05;;;;;;;;;;5039306;28;20404;-88
2022/01/07 01:46:52;;;;;;;15.68;10.90;;;;;;;;;;5040062;28;20177;-88
2022/01/07 01:49:21;;;;;;;18.80;11.48;;;;;;;;;;5040968;28;20045;-87
2022/01/07 01:51:50;;;;;;;17.15;11.02;;;;;;;;;;5057685;28;20047;-86
2022/01/07 01:54:17;;;;;;;15.65;10.30;;;;;;;;;;5040087;28;20044;-88
2022/01/07 01:56:43;;;;;;;20.30;12.32;;;;;;;;;;5040458;28;20040;-88
2022/01/07 01:59:14;;;;;;;17.65;12.20;;;;;;;;;;5057374;28;20543;-87
2022/01/07 02:01:40;;;;;;;19.15;12.27;;;;;;;;;;5040973;28;20048;-87
2022/01/07 02:04:07;;;;;;;20.05;12.35;;;;;;;;;;5057993;28;20040;-88
2022/01/07 02:09:35;;;;;;;23.70;14.18;;;;;;;;;;5058528;28;20049;-88
2022/01/07 02:12:01;;;;;;;23.83;13.47;;;;;;;;;;5041927;28;20119;-87
2022/01/07 02:14:30;;;;;;;24.40;12.40;;;;;;;;;;5065182;28;20040;-87
2022/01/07 02:17:03;;;;;;;19.52;13.00;;;;;;;;;;5061405;28;20085;-88
2022/01/07 02:19:30;;;;;;;20.98;13.73;;;;;;;;;;5077840;28;20044;-88
2022/01/07 02:21:59;;;;;;;23.63;12.65;;;;;;;;;;5060942;28;20500;-88
2022/01/07 02:24:30;;;;;;;19.98;12.60;;;;;;;;;;5060399;28;20047;-88
2022/01/07 02:27:03;;;;;;;23.95;13.52;;;;;;;;;;5061160;28;20085;-88
2022/01/07 02:29:36;;;;;;;16.83;10.90;;;;;;;;;;5077425;28;20040;-87
2022/01/07 02:32:08;;;;;;;19.60;11.85;;;;;;;;;;5058588;28;20090;-88
2022/01/07 02:34:34;;;;;;;18.67;11.40;;;;;;;;;;5058520;28;20088;-88
2022/01/07 02:37:00;;;;;;;20.90;12.20;;;;;;;;;;5059850;28;20052;-88
2022/01/07 02:39:30;;;;;;;18.17;12.35;;;;;;;;;;5076689;28;20048;-87
2022/01/07 02:41:59;;;;;;;19.08;12.73;;;;;;;;;;5060391;28;20044;-88
2022/01/07 02:44:27;;;;;;;24.88;13.75;;;;;;;;;;5059403;28;20526;-88
2022/01/07 02:46:56;;;;;;;21.08;13.23;;;;;;;;;;5059125;28;20105;-88
2022/01/07 02:49:22;;;;;;;23.48;14.05;;;;;;;;;;5076088;28;20036;-88
2022/01/07 02:51:48;;;;;;;22.08;14.43;;;;;;;;;;5059772;28;20036;-87
2022/01/07 02:54:26;;;;;;;25.60;16.40;;;;;;;;;;5060408;28;20036;-87
2022/01/07 02:56:58;;;;;;;21.77;12.80;;;;;;;;;;5058700;28;20040;-88
2022/01/07 02:59:24;;;;;;;25.17;15.10;;;;;;;;;;5076172;28;20051;-87
2022/01/07 03:01:50;;;;;;;23.02;14.52;;;;;;;;;;5075501;28;20035;-86
2022/01/07 03:04:17;;;;;;;26.90;14.23;;;;;;;;;;5059204;28;20089;-87
2022/01/07 03:06:43;;;;;;;25.13;15.18;;;;;;;;;;5058676;28;20135;-88
2022/01/07 03:09:09;;;;;;;24.42;15.90;;;;;;;;;;5075744;28;20071;-88
2022/01/07 03:11:38;;;;;;;22.20;15.32;;;;;;;;;;5075880;28;20127;-87
2022/01/07 03:14:06;;;;;;;24.98;15.88;;;;;;;;;;5058948;28;20127;-86
2022/01/07 03:16:38;;;;;;;25.42;15.48;;;;;;;;;;5058597;28;20056;-88
2022/01/07 03:19:04;;;;;;;23.88;15.60;;;;;;;;;;5058764;28;20265;-86
2022/01/07 03:21:39;;;;;;;25.70;16.17;;;;;;;;;;5059138;28;20040;-88
2022/01/07 03:24:08;;;;;;;29.98;16.58;;;;;;;;;;5058788;28;20377;-87
2022/01/07 03:26:34;;;;;;;23.48;15.10;;;;;;;;;;5058220;28;20508;-88
2022/01/07 03:29:07;;;;;;;25.08;14.65;;;;;;;;;;5074954;28;20051;-88
2022/01/07 03:31:36;;;;;;;26.38;16.45;;;;;;;;;;5058642;28;20511;-88
2022/01/07 03:34:02;;;;;;;23.77;14.43;;;;;;;;;;5058406;28;20035;-87
2022/01/07 03:36:29;;;;;;;27.33;16.48;;;;;;;;;;5058139;28;20385;-88
2022/01/07 03:38:56;;;;;;;29.92;16.48;;;;;;;;;;5058246;28;20059;-86
2022/01/07 03:41:23;;;;;;;25.98;16.48;;;;;;;;;;5058461;28;20125;-87
2022/01/07 03:43:49;;;;;;;24.98;16.45;;;;;;;;;;5058711;28;20051;-86
2022/01/07 03:46:15;;;;;;;28.55;15.18;;;;;;;;;;5058563;28;20514;-88
2022/01/07 03:48:41;;;;;;;26.15;16.90;;;;;;;;;;5089158;22;20130;-64
2022/01/07 03:51:07;;;;;;;26.02;15.35;;;3.50;99.90;;;;;;5091753;28;20143;-64
2022/01/07 03:53:33;;;;;;;21.42;15.07;;;;;;;;;;5091717;28;20036;-64
2022/01/07 03:55:58;;;;;;;26.77;15.95;;;3.50;99.90;;;;;;5090976;28;20057;-64
2022/01/07 03:58:24;;;;;;;22.85;14.70;;;;;;;;;;5102084;28;20445;-64
2022/01/07 04:00:50;;;;;;;25.42;14.85;;;;;;;;;;5111326;28;20383;-64
2022/01/07 04:03:17;;;;;;;25.15;14.40;;;;;;;;;;5111813;28;20047;-64
2022/01/07 04:05:43;;;;;;;22.95;14.07;;;;;;;;;;5093158;28;20058;-64
2022/01/07 04:08:10;;;;;;;21.65;13.50;;;3.70;99.90;;;;;;5111569;28;20043;-64
2022/01/07 04:10:37;;;;;;;22.52;13.25;;;;;;;;;;5111443;28;20127;-65
2022/01/07 04:13:03;;;;;;;22.77;13.88;;;;;;;;;;5111925;28;20096;-64
2022/01/07 04:15:29;;;;;;;24.38;13.95;;;;;;;;;;5111606;28;20378;-64
2022/01/07 04:17:55;;;;;;;25.48;15.38;;;;;;;;;;5111800;28;20031;-64
2022/01/07 04:20:23;;;;;;;21.08;14.23;;;;;;;;;;5111599;28;20043;-64
2022/01/07 04:22:49;;;;;;;25.95;15.73;;;3.80;99.90;;;;;;5111463;28;20039;-65
2022/01/07 04:25:19;;;;;;;22.13;14.15;;;3.70;99.90;;;;;;5111132;28;20043;-65
2022/01/07 04:27:46;;;;;;;25.40;16.08;;;;;;;;;;5093112;28;20032;-64
2022/01/07 04:30:12;;;;;;;26.83;15.63;;;;;;;;;;5111373;28;20123;-64
2022/01/07 04:32:38;;;;;;;25.67;15.85;;;3.80;99.90;;;;;;5111208;28;20043;-65
2022/01/07 04:35:05;;;;;;;30.63;17.05;;;;;;;;;;5111067;28;20039;-65
2022/01/07 04:37:31;;;;;;;26.77;15.98;;;;;;;;;;5111081;28;20047;-64
2022/01/07 04:39:57;;;;;;;23.35;15.90;;;;;;;;;;5111205;28;20048;-65
2022/01/07 04:42:23;;;;;;;25.58;16.33;;;;;;;;;;5111512;28;20082;-64
2022/01/07 04:44:49;;;;;;;25.00;15.52;;;;;;;;;;5111168;28;20043;-65
2022/01/07 04:47:15;;;;;;;24.33;17.05;;;3.70;99.90;;;;;;5111138;28;20074;-66
2022/01/07 04:49:40;;;;;;;25.48;15.90;;;3.80;99.90;;;;;;5111288;28;20039;-65
2022/01/07 04:52:07;;;;;;;24.83;15.57;;;3.70;99.90;;;;;;5111089;28;20055;-65
2022/01/07 04:54:33;;;;;;;24.88;16.15;;;3.50;99.90;;;;;;5110867;28;20396;-65
2022/01/07 04:56:59;;;;;;;25.05;16.90;;;;;;;;;;5111081;28;20517;-64
2022/01/07 04:59:25;;;;;;;26.30;15.88;;;;;;;;;;5111273;28;20078;-64
2022/01/07 05:01:52;;;;;;;26.75;16.38;;;3.90;99.90;;;;;;5111359;28;20450;-65
2022/01/07 05:04:18;;;;;;;23.95;14.90;;;;;;;;;;5110836;28;20048;-65
2022/01/07 05:06:44;;;;;;;24.95;14.82;;;;;;;;;;5110847;28;20035;-64
2022/01/07 05:09:11;;;;;;;24.33;15.35;;;;;;;;;;5110455;28;20528;-64
2022/01/07 05:11:37;;;;;;;24.95;16.33;;;;;;;;;;5111271;28;20126;-64
2022/01/07 05:14:02;;;;;;;22.45;16.08;;;3.90;99.90;;;;;;5113900;28;20039;-64
2022/01/07 05:16:28;;;;;;;25.30;15.27;;;3.90;99.90;;;;;;5114677;28;20028;-64
2022/01/07 05:18:54;;;;;;;22.83;15.50;;;4.00;99.90;;;;;;5113982;28;20043;-64
2022/01/07 05:21:20;;;;;;;22.40;15.73;;;4.00;99.90;;;;;;5095955;28;20054;-64
2022/01/07 05:23:46;;;;;;;26.00;16.13;;;;;;;;;;5114692;28;20035;-64
2022/01/07 05:26:12;;;;;;;26.42;16.08;;;;;;;;;;5114362;28;20437;-64
2022/01/07 05:28:38;;;;;;;27.85;16.05;;;;;;;;;;5114616;28;20088;-64
2022/01/07 05:31:04;;;;;;;24.77;16.60;;;4.00;99.90;;;;;;5087072;28;20035;-64
2022/01/07 05:33:30;;;;;;;25.75;14.93;;;;;;;;;;5095951;28;20175;-63
2022/01/07 05:35:56;;;;;;;26.13;17.15;;;;;;;;;;5093381;28;20040;-63
2022/01/07 05:38:22;;;;;;;23.50;16.58;;;;;;;;;;5094068;28;20536;-63
2022/01/07 05:40:47;;;;;;;23.02;15.25;;;4.00;99.90;;;;;;5092584;28;20036;-63
2022/01/07 05:43:13;;;;;;;24.23;15.75;;;4.00;99.90;;;;;;5093854;28;20036;-64
2022/01/07 05:45:40;;;;;;;26.48;18.55;;;;;;;;;;5093501;28;20101;-64
2022/01/07 05:48:06;;;;;;;32.08;18.65;;;;;;;;;;5092302;28;20046;-64
2022/01/07 05:50:32;;;;;;;30.00;18.65;;;;;;;;;;5104361;28;20035;-63
2022/01/07 05:52:58;;;;;;;29.08;18.77;;;4.10;99.90;;;;;;5094627;28;20402;-63
2022/01/07 05:55:24;;;;;;;24.52;16.33;;;;;;;;;;5112743;28;20032;-63
2022/01/07 05:57:50;;;;;;;27.00;16.90;;;;;;;;;;5112862;28;20039;-63
2022/01/07 06:00:18;;;;;;;28.80;17.13;;;4.10;99.90;;;;;;5112785;28;20534;-63
2022/01/07 06:02:44;;;;;;;30.92;17.10;;;;;;;;;;5112762;28;20036;-63
2022/01/07 06:05:10;;;;;;;28.58;18.90;;;;;;;;;;5112521;28;20042;-63
2022/01/07 06:07:35;;;;;;;26.52;18.00;;;4.10;99.90;;;;;;5110353;28;20485;-63
2022/01/07 06:10:01;;;;;;;24.70;17.25;;;4.20;99.90;;;;;;5112826;28;20042;-63
2022/01/07 06:12:27;;;;;;;24.27;16.27;;;;;;;;;;5112477;28;20092;-63
2022/01/07 06:14:53;;;;;;;25.88;17.60;;;;;;;;;;5094436;28;20042;-63
2022/01/07 06:17:19;;;;;;;25.65;16.83;;;;;;;;;;5112957;28;20031;-63
2022/01/07 06:19:45;;;;;;;26.45;16.67;;;;;;;;;;5112383;28;20468;-64
2022/01/07 06:22:11;;;;;;;27.83;17.30;;;4.40;99.90;;;;;;5112543;28;20092;-63
2022/01/07 06:24:37;;;;;;;23.73;16.52;;;;;;;;;;5111720;28;20043;-64
2022/01/07 06:27:03;;;;;;;24.45;17.25;;;;;;;;;;5109294;28;20035;-63
2022/01/07 06:29:29;;;;;;;31.13;18.33;;;;;;;;;;5112803;28;20035;-64
2022/01/07 06:31:55;;;;;;;28.17;16.73;;;;;;;;;;5099951;28;20077;-62
2022/01/07 06:34:21;;;;;;;23.83;16.20;;;;;;;;;;5092389;28;20039;-63
2022/01/07 06:36:50;;;;;;;29.73;18.42;;;;;;;;;;5092834;28;20466;-62
2022/01/07 06:39:18;;;;;;;31.15;19.35;;;4.40;99.90;;;;;;5092840;28;20089;-63
2022/01/07 06:41:46;;;;;;;32.38;18.55;;;4.40;99.90;;;;;;5092869;28;20115;-63
2022/01/07 06:44:12;;;;;;;25.15;16.23;;;;;;;;;;5092430;28;20044;-63
2022/01/07 06:46:38;;;;;;;23.30;15.27;;;4.50;99.90;;;;;;5092557;28;20045;-63
2022/01/07 06:49:04;;;;;;;29.77;17.30;;;;;;;;;;5074452;28;20416;-63
2022/01/07 06:51:31;;;;;;;29.70;17.83;;;;;;;;;;5074062;28;20044;-62
2022/01/07 06:53:57;;;;;;;27.60;17.48;;;;;;;;;;5094094;28;20107;-63
2022/01/07 06:56:23;;;;;;;32.00;19.52;;;4.50;99.90;;;;;;5093767;28;20032;-63
2022/01/07 06:58:49;;;;;;;25.35;18.10;;;;;;;;;;5093044;28;20036;-63
2022/01/07 07:01:15;;;;;;;28.95;18.27;;;;;;;;;;5092027;28;20043;-63
2022/01/07 07:03:41;;;;;;;30.92;18.77;;;;;;;;;;5102807;28;20619;-63
2022/01/07 07:06:07;;;;;;;27.67;17.15;;;;;;;;;;5110976;28;20433;-63
2022/01/07 07:08:33;;;;;;;28.25;17.75;;;;;;;;;;5111243;28;20051;-64
2022/01/07 07:10:59;;;;;;;30.55;17.98;;;;;;;;;;5111149;28;20040;-63
2022/01/07 07:13:25;;;;;;;31.23;16.70;;;;;;;;;;5111550;28;20123;-63
2022/01/07 07:15:51;;;;;;;28.13;16.15;;;;;;;;;;5107299;28;20486;-63
2022/01/07 07:18:17;;;;;;;28.83;18.75;;;;;;;;;;5091901;28;20043;-63
2022/01/07 07:20:44;;;;;;;31.38;19.38;;;;;;;;;;5095107;28;20519;-63
2022/01/07 07:23:10;;;;;;;28.95;18.95;;;;;;;;;;5112023;28;20032;-63
2022/01/07 07:25:36;;;;;;;31.60;17.67;;;;;;;;;;5106940;28;20047;-63
2022/01/07 07:28:02;;;;;;;33.58;17.92;;;;;;;;;;5110677;28;20031;-63
2022/01/07 07:30:38;;;;;;;30.05;19.13;;;;;;;;;;5110802;28;20043;-63
2022/01/07 07:38:36;;;;;;;29.88;18.35;;;4.50;99.90;;;;;;5110242;28;20048;-63
2022/01/07 07:41:03;;;;;;;34.58;18.25;;;4.30;99.90;;;;;;5090613;28;20035;-64
2022/01/07 07:43:29;;;;;;;29.77;18.98;;;;;;;;;;5091864;28;20092;-63
2022/01/07 07:45:54;;;;;;;33.88;21.63;;;4.30;99.90;;;;;;5109621;28;20028;-63
2022/01/07 07:48:20;;;;;;;34.03;20.40;;;;;;;;;;5109750;28;20035;-63
2022/01/07 07:50:46;;;;;;;30.55;19.98;;;;;;;;;;5092080;28;20077;-63
2022/01/07 07:53:13;;;;;;;34.92;21.08;;;;;;;;;;5110432;28;20466;-63
2022/01/07 07:55:39;;;;;;;32.53;18.65;;;;;;;;;;5109143;28;20035;-64
2022/01/07 07:58:04;;;;;;;35.47;20.88;;;;;;;;;;5110826;28;20576;-63
2022/01/07 08:00:31;;;;;;;31.95;21.30;;;;;;;;;;5110596;28;20073;-63
2022/01/07 08:02:58;;;;;;;34.60;20.77;;;4.50;99.90;;;;;;5110919;28;20134;-64
2022/01/07 08:05:24;;;;;;;35.33;22.33;;;;;;;;;;5110375;28;20404;-63
2022/01/07 08:07:50;;;;;;;37.28;21.35;;;;;;;;;;5110430;28;20027;-63
2022/01/07 08:10:23;;;;;;;31.92;20.40;;;;;;;;;;5110269;28;20055;-63
2022/01/07 08:16:06;;;;;;;36.50;21.40;;;;;;;;;;5110050;28;20032;-63
2022/01/07 08:18:04;;;;;;;31.90;20.08;;;;;;;;;;5095235;28;20054;-63
2022/01/07 08:20:31;;;;;;;32.80;21.25;;;;;;;;;;5110154;28;20050;-63
2022/01/07 08:22:57;;;;;;;40.63;21.55;;;;;;;;;;5110313;28;20036;-63
2022/01/07 08:25:24;;;;;;;35.22;20.17;;;;;;;;;;5109864;28;20071;-63
2022/01/07 08:27:50;;;;;;;32.70;18.48;;;;;;;;;;5110031;28;20145;-63
2022/01/07 08:30:24;;;;;;;32.95;19.48;;;;;;;;;;5110350;28;20043;-63
2022/01/07 08:35:38;;;;;;;;;;;4.50;99.90;;;;;;5110939;28;20036;-63
2022/01/07 08:38:04;;;;;;;34.28;20.25;;;;;;;;;;5110689;28;19922;-63
2022/01/07 08:40:30;;;;;;;31.38;18.25;;;;;;;;;;5110750;28;20043;-63
2022/01/07 08:42:56;;;;;;;30.88;19.25;;;;;;;;;;5108094;28;20043;-63
2022/01/07 08:45:25;;;;;;;35.53;19.38;;;;;;;;;;5106228;28;20517;-63
2022/01/07 08:47:51;;;;;;;31.25;19.33;;;;;;;;;;5107767;28;20035;-64
2022/01/07 08:50:17;;;;;;;35.33;20.40;;;;;;;;;;5114320;28;20497;-63
2022/01/07 08:52:43;;;;;;;32.58;20.27;;;;;;;;;;5114175;28;20035;-63
2022/01/07 08:55:09;;;;;;;35.58;20.08;;;;;;;;;;5113905;28;20034;-63
2022/01/07 08:57:35;;;;;;;32.60;19.95;;;;;;;;;;5113419;28;20046;-63
2022/01/07 09:00:01;;;;;;;41.42;20.63;;;;;;;;;;5113805;28;20548;-63
2022/01/07 09:02:27;;;;;;;39.17;21.58;;;;;;;;;;5096170;28;20100;-64
2022/01/07 09:04:53;;;;;;;33.40;18.98;;;;;;;;;;5113886;28;20454;-64
2022/01/07 09:07:18;;;;;;;35.10;21.13;;;4.10;99.90;;;;;;5113700;28;20088;-64
2022/01/07 09:09:44;;;;;;;35.42;19.30;;;;;;;;;;5113797;28;20027;-64
2022/01/07 09:12:10;;;;;;;34.65;20.25;;;;;;;;;;5114322;28;20028;-64
2022/01/07 09:14:36;;;;;;;32.33;19.52;;;;;;;;;;5113024;28;20071;-64
2022/01/07 09:17:02;;;;;;;33.00;17.40;;;;;;;;;;5113768;28;20070;-64
2022/01/07 09:19:28;;;;;;;39.85;20.52;;;;;;;;;;5104744;28;20040;-64
2022/01/07 09:21:56;;;;;;;37.50;21.48;;;;;;;;;;5108883;28;20084;-64
2022/01/07 09:24:22;;;;;;;35.47;19.70;;;4.70;99.90;;;;;;5113363;28;20036;-65
2022/01/07 09:26:48;;;;;;;33.58;18.33;;;;;;;;;;5113248;28;20034;-65
2022/01/07 09:29:14;;;;;;;31.83;17.90;;;4.90;99.90;;;;;;5113235;28;20036;-62
2022/01/07 09:31:40;;;;;;;33.13;18.90;;;;;;;;;;5113321;28;20486;-62
2022/01/07 09:34:06;;;;;;;34.88;18.75;;;;;;;;;;5113748;28;20118;-62
2022/01/07 09:36:32;;;;;;;32.10;20.13;;;;;;;;;;5113105;28;20044;-63
2022/01/07 09:38:58;;;;;;;29.15;15.38;;;4.90;99.90;;;;;;5094837;28;20039;-62
2022/01/07 09:41:25;;;;;;;31.65;13.57;;;;;;;;;;5113075;28;20035;-62
2022/01/07 09:43:51;;;;;;;22.42;11.75;;;;;;;;;;5112505;28;20542;-63
2022/01/07 09:46:18;;;;;;;17.13;10.02;;;;;;;;;;5094622;28;20128;-62
2022/01/07 09:48:45;;;;;;;22.40;9.07;;;;;;;;;;5113252;28;20027;-62
2022/01/07 09:51:13;;;;;;;22.80;9.55;;;;;;;;;;5098436;28;20047;-62
2022/01/07 09:53:38;;;;;;;18.20;8.52;;;4.60;99.90;;;;;;5093563;28;20064;-62
2022/01/07 09:56:04;;;;;;;22.15;9.65;;;4.30;99.90;;;;;;5093114;28;20070;-63
2022/01/07 09:58:32;;;;;;;23.25;10.40;;;3.70;99.90;;;;;;5091251;28;20063;-62
2022/01/07 10:01:01;;;;;;;20.13;11.30;;;4.80;99.90;;;;;;5095639;28;20035;-63
2022/01/07 10:03:41;;;;;;;24.35;12.25;;;4.50;99.90;;;;;;5102559;28;20122;-62
2022/01/07 10:06:18;;;;;;;34.45;13.27;;;;;;;;;;5094412;28;20035;-62
2022/01/07 10:08:46;;;;;;;26.38;12.50;;;;;;;;;;5112482;28;20027;-62
2022/01/07 10:11:18;;;;;;;25.02;13.18;;;;;;;;;;5113094;28;20088;-62
2022/01/07 10:13:45;;;;;;;27.23;13.25;;;;;;;;;;5106683;28;20039;-62
2022/01/07 10:16:19;;;;;;;21.20;11.10;;;4.70;99.90;;;;;;5092235;28;20051;-63
2022/01/07 10:18:47;;;;;;;15.38;8.60;;;;;;;;;;5099640;28;20039;-62
2022/01/07 10:21:13;;;;;;;25.95;7.95;;;;;;;;;;5088251;28;20478;-63
2022/01/07 10:23:40;;;;;;;15.55;6.88;;;;;;;;;;5097796;28;20232;-62
2022/01/07 10:26:12;;;;;;;14.18;5.90;;;;;;;;;;5093605;28;20154;-62
2022/01/07 10:28:38;;;;;;;16.05;6.93;;;;;;;;;;5094706;28;20043;-62
2022/01/07 10:31:05;;;;;;;18.98;6.85;;;;;;;;;;5099515;28;20489;-63
2022/01/07 10:33:38;;;;;;;15.73;6.10;;;4.90;99.90;;;;;;5094981;28;20043;-62
2022/01/07 10:36:07;;;;;;;15.20;5.65;;;4.80;99.90;;;;;;5112658;28;20035;-62
2022/01/07 10:38:35;;;;;;;14.35;5.70;;;5.40;99.90;;;;;;5112850;28;20036;-63
2022/01/07 10:41:02;;;;;;;13.45;6.10;;;4.90;99.90;;;;;;5113148;28;20446;-63
2022/01/07 10:43:35;;;;;;;10.70;5.88;;;5.00;99.90;;;;;;5112743;28;20071;-62
2022/01/07 10:46:15;;;;;;;14.55;6.28;;;;;;;;;;5112548;28;20035;-62
2022/01/07 10:48:51;;;;;;;11.43;6.47;;;4.80;99.90;;;;;;5112161;28;20120;-63
2022/01/07 10:51:24;;;;;;;15.80;6.43;;;;;;;;;;5112806;28;20404;-63
2022/01/07 10:53:54;;;;;;;12.30;6.75;;;;;;;;;;5112750;28;20073;-63
2022/01/07 10:56:21;;;;;;;15.40;6.70;;;;;;;;;;5112317;28;20036;-63
2022/01/07 10:58:47;;;;;;;13.50;5.88;;;;;;;;;;5112400;28;20444;-63
2022/01/07 11:01:19;;;;;;;13.52;5.63;;;;;;;;;;5094198;28;20386;-63
2022/01/07 11:03:45;;;;;;;13.80;5.68;;;;;;;;;;5112168;28;20031;-63
2022/01/07 11:06:12;;;;;;;12.50;4.68;;;;;;;;;;5111169;28;20040;-63
2022/01/07 11:08:39;;;;;;;10.27;5.13;;;6.40;99.90;;;;;;5092948;28;20043;-63
2022/01/07 11:11:05;;;;;;;13.60;5.65;;;;;;;;;;5096452;28;20395;-63
2022/01/07 11:13:34;;;;;;;11.70;4.78;;;5.90;99.90;;;;;;5091796;28;20479;-63
2022/01/07 11:16:00;;;;;;;15.25;5.50;;;6.20;99.90;;;;;;5091823;28;20047;-63
2022/01/07 11:18:26;;;;;;;12.65;4.68;;;;;;;;;;5091981;28;20085;-63
2022/01/07 11:20:52;;;;;;;10.85;5.22;;;;;;;;;;5091616;28;20048;-63
2022/01/07 11:23:18;;;;;;;16.02;5.43;;;6.10;99.90;;;;;;5091446;28;20075;-63
2022/01/07 11:25:44;;;;;;;12.07;4.53;;;;;;;;;;5091329;28;20113;-63
2022/01/07 11:28:18;;;;;;;13.25;4.57;;;;;;;;;;5091228;28;20058;-63
2022/01/07 11:30:46;;;;;;;12.02;4.70;;;;;;;;;;5091968;28;20483;-63
2022/01/07 11:33:18;;;;;;;8.13;3.17;;;;;;;;;;5091575;28;20089;-63
2022/01/07 11:35:45;;;;;;;8.40;2.50;;;;;;;;;;5091415;28;20384;-63
2022/01/07 11:38:16;;;;;;;7.68;2.25;;;;;;;;;;5091240;28;20114;-63
2022/01/07 11:40:45;;;;;;;9.70;1.95;;;;;;;;;;5090205;28;20074;-63
2022/01/07 11:43:13;;;;;;;9.75;2.20;;;;;;;;;;5091261;28;20122;-63
2022/01/07 11:45:40;;;;;;;14.38;2.28;;;;;;;;;;5091150;28;20043;-63
2022/01/07 11:48:37;;;;;;;8.63;2.20;;;5.50;94.70;;;;;;5091062;28;20051;-63
2022/01/07 11:51:03;;;;;;;9.73;2.20;;;;;;;;;;5091224;28;20036;-63
2022/01/07 11:53:43;;;;;;;6.50;2.47;;;5.60;95.00;;;;;;5091377;28;20093;-63
2022/01/07 11:56:13;;;;;;;8.10;2.13;;;;;;;;;;5104808;28;20063;-63
2022/01/07 11:58:55;;;;;;;11.40;2.20;;;5.60;96.60;;;;;;5100056;28;20036;-63
2022/01/07 12:01:39;;;;;;;10.77;2.17;;;5.60;96.20;;;;;;5091144;28;20036;-63
2022/01/07 12:04:15;;;;;;;10.65;3.35;;;;;;;;;;5072941;28;20471;-63
2022/01/07 12:06:44;;;;;;;7.63;2.03;;;;;;;;;;5090975;28;20093;-63
2022/01/07 12:09:21;;;;;;;10.50;2.65;;;;;;;;;;5090940;28;20111;-62
2022/01/07 12:12:01;;;;;;;6.40;1.60;;;;;;;;;;5091055;28;20420;-63
2022/01/07 12:14:46;;;;;;;6.75;1.73;;;;;;;;;;5090859;28;20040;-63
2022/01/07 12:17:17;;;;;;;8.13;2.13;;;;;;;;;;5091010;28;20081;-63
2022/01/07 12:19:52;;;;;;;11.93;2.47;;;6.10;96.60;;;;;;5090877;28;20047;-63
2022/01/07 12:22:20;;;;;;;15.93;2.90;;;;;;;;;;5093371;28;20044;-63
2022/01/07 12:24:47;;;;;;;10.13;3.00;;;;;;;;;;5094637;28;20510;-63
2022/01/07 12:27:18;;;;;;;7.43;2.67;;;;;;;;;;5094837;28;20032;-63
2022/01/07 12:29:46;;;;;;;11.52;2.88;;;6.10;99.90;;;;;;5094887;28;20046;-63
2022/01/07 12:32:16;;;;;;;7.00;2.00;;;6.40;97.90;;;;;;5095037;28;20043;-63
2022/01/07 12:34:44;;;;;;;6.70;1.75;;;6.00;94.40;;;;;;5094388;28;20093;-63
2022/01/07 12:37:18;;;;;;;9.07;2.35;;;5.80;93.60;;;;;;5094494;28;20478;-63
2022/01/07 12:39:51;;;;;;;3.83;1.27;;;6.90;94.50;;;;;;5094945;28;20094;-63
2022/01/07 12:42:17;;;;;;;7.20;2.30;;;;;;;;;;5076177;28;20035;-63
2022/01/07 12:44:51;;;;;;;9.32;1.98;;;6.30;92.90;;;;;;5097698;28;20056;-63
2022/01/07 12:47:18;;;;;;;4.85;1.20;;;;;;;;;;5102411;28;20036;-63
2022/01/07 12:49:50;;;;;;;8.48;1.75;;;7.30;89.90;;;;;;5094980;28;20087;-62
2022/01/07 12:52:26;;;;;;;7.30;1.88;;;;;;;;;;5094854;28;20068;-63
2022/01/07 12:55:04;;;;;;;10.15;1.70;;;;;;;;;;5079384;28;20397;-63
2022/01/07 12:57:33;;;;;;;10.05;2.15;;;;;;;;;;5113280;28;20051;-63
2022/01/07 13:00:16;;;;;;;8.18;1.60;;;;;;;;;;5095630;28;20473;-63
2022/01/07 13:02:44;;;;;;;7.75;1.60;;;;;;;;;;5095677;28;20044;-63
2022/01/07 13:05:25;;;;;;;9.30;2.00;;;8.10;77.90;;;;;;5114048;28;20096;-63
2022/01/07 13:08:15;;;;;;;8.98;1.90;;;8.60;75.20;;;;;;5088446;28;20114;-63
2022/01/07 13:10:44;;;;;;;8.20;2.58;;;7.90;79.60;;;;;;5101253;28;20062;-63
2022/01/07 13:13:21;;;;;;;9.43;1.83;;;;;;;;;;5096198;28;20032;-63
2022/01/07 13:15:54;;;;;;;12.88;2.63;;;;;;;;;;5106014;28;20156;-63
2022/01/07 13:18:20;;;;;;;11.77;2.42;;;;;;;;;;5114217;28;20043;-63
2022/01/07 13:20:46;;;;;;;6.50;2.50;;;;;;;;;;5114022;28;20118;-63
2022/01/07 13:23:14;;;;;;;11.48;2.65;;;7.90;82.80;;;;;;5113277;28;20490;-63
2022/01/07 13:25:39;;;;;;;7.80;1.70;;;7.90;82.20;;;;;;5113376;28;20071;-63
2022/01/07 13:28:06;;;;;;;11.05;2.30;;;;;;;;;;5113528;28;20059;-63
2022/01/07 13:30:35;;;;;;;10.65;2.58;;;8.30;76.80;;;;;;5113482;28;20043;-63
2022/01/07 13:33:11;;;;;;;8.23;1.52;;;;;;;;;;5112956;28;20056;-63
2022/01/07 13:35:38;;;;;;;17.73;3.65;;;9.50;71.80;;;;;;5076494;28;20044;-63
2022/01/07 13:38:11;;;;;;;10.45;2.58;;;;;;;;;;5093949;28;20044;-63
2022/01/07 13:40:37;;;;;;;8.90;2.00;;;;;;;;;;5093994;28;20035;-63
2022/01/07 13:43:14;;;;;;;9.52;2.63;;;;;;;;;;5094042;28;20413;-63
2022/01/07 13:45:41;;;;;;;9.18;1.90;;;8.70;63.20;;;;;;5093298;28;20047;-63
2022/01/07 13:48:08;;;;;;;11.02;2.63;;;;;;;;;;5097442;28;20032;-63
2022/01/07 13:50:38;;;;;;;9.85;2.78;;;9.00;64.10;;;;;;5109476;28;20044;-63
2022/01/07 13:53:30;;;;;;;8.38;1.98;;;;;;;;;;5103228;28;20050;-63
2022/01/07 13:56:06;;;;;;;10.05;2.75;;;9.10;61.40;;;;;;5094211;28;20049;-63
2022/01/07 13:58:31;;;;;;;8.18;1.85;;;8.60;59.70;;;;;;5099347;28;20069;-63
2022/01/07 14:01:04;;;;;;;9.68;2.83;;;;;;;;;;5097955;28;20198;-63
2022/01/07 14:03:51;;;;;;;6.80;1.80;;;8.60;56.20;;;;;;5105051;28;20465;-63
2022/01/07 14:06:22;;;;;;;8.88;1.77;;;7.50;55.80;;;;;;5096924;28;20035;-63
2022/01/07 14:08:48;;;;;;;8.05;2.35;;;;;;;;;;5074771;28;20048;-63
2022/01/07 14:11:16;;;;;;;8.00;1.73;;;8.60;59.40;;;;;;5092926;28;20518;-63
2022/01/07 14:13:42;;;;;;;10.48;2.33;;;7.90;59.10;;;;;;5093145;28;20032;-63
2022/01/07 14:16:08;;;;;;;13.15;3.28;;;;;;;;;;5092834;28;20558;-63
2022/01/07 14:18:36;;;;;;;10.80;1.90;;;7.70;58.90;;;;;;5092763;28;20524;-63